sensor_id;sensor_type;location;lat;lon;timestamp;temperature;humidity
5176;DHT22;2607;50.934;6.934;2023-07-08T00:01:14;22.50;67.30
5176;DHT22;2607;50.934;6.934;2023-07-08T00:03:40;22.50;67.50
5176;DHT22;2607;50.934;6.934;2023-07-08T00:06:11;22.50;67.70
5176;DHT22;2607;50.934;6.934;2023-07-08T00:08:38;22.40;68.00
5176;DHT22;2607;50.934;6.934;2023-07-08T00:11:09;22.40;68.20
5176;DHT22;2607;50.934;6.934;2023-07-08T00:13:35;22.40;68.80
5176;DHT22;2607;50.934;6.934;2023-07-08T00:16:01;22.30;69.40
5176;DHT22;2607;50.934;6.934;2023-07-08T00:18:26;22.30;70.10
5176;DHT22;2607;50.934;6.934;2023-07-08T00:20:52;22.30;70.30
5176;DHT22;2607;50.934;6.934;2023-07-08T00:23:17;22.30;69.60
5176;DHT22;2607;50.934;6.934;2023-07-08T00:25:47;22.20;70.00
5176;DHT22;2607;50.934;6.934;2023-07-08T00:28:18;22.20;70.50
5176;DHT22;2607;50.934;6.934;2023-07-08T00:30:45;22.20;72.00
5176;DHT22;2607;50.934;6.934;2023-07-08T00:33:10;22.20;72.00
5176;DHT22;2607;50.934;6.934;2023-07-08T00:35:42;22.10;71.50
5176;DHT22;2607;50.934;6.934;2023-07-08T00:38:14;22.10;71.00
5176;DHT22;2607;50.934;6.934;2023-07-08T00:40:52;22.10;71.00
5176;DHT22;2607;50.934;6.934;2023-07-08T00:43:20;22.10;71.20
5176;DHT22;2607;50.934;6.934;2023-07-08T00:45:51;22.00;71.20
5176;DHT22;2607;50.934;6.934;2023-07-08T00:48:29;22.10;71.40
5176;DHT22;2607;50.934;6.934;2023-07-08T00:50:55;22.00;71.50
5176;DHT22;2607;50.934;6.934;2023-07-08T00:53:32;22.00;71.70
5176;DHT22;2607;50.934;6.934;2023-07-08T00:58:53;21.90;72.30
5176;DHT22;2607;50.934;6.934;2023-07-08T01:01:20;21.90;72.50
5176;DHT22;2607;50.934;6.934;2023-07-08T01:03:58;21.90;72.90
5176;DHT22;2607;50.934;6.934;2023-07-08T01:06:28;21.90;73.20
5176;DHT22;2607;50.934;6.934;2023-07-08T01:08:59;21.90;73.30
5176;DHT22;2607;50.934;6.934;2023-07-08T01:11:27;21.90;73.50
5176;DHT22;2607;50.934;6.934;2023-07-08T01:13:53;21.90;73.90
5176;DHT22;2607;50.934;6.934;2023-07-08T01:16:19;21.80;74.20
5176;DHT22;2607;50.934;6.934;2023-07-08T01:18:45;21.80;74.70
5176;DHT22;2607;50.934;6.934;2023-07-08T01:21:37;21.80;74.60
5176;DHT22;2607;50.934;6.934;2023-07-08T01:24:08;21.80;74.60
5176;DHT22;2607;50.934;6.934;2023-07-08T01:26:38;21.80;74.70
5176;DHT22;2607;50.934;6.934;2023-07-08T01:29:05;21.80;74.80
5176;DHT22;2607;50.934;6.934;2023-07-08T01:31:32;21.80;74.80
5176;DHT22;2607;50.934;6.934;2023-07-08T01:33:58;21.80;75.00
5176;DHT22;2607;50.934;6.934;2023-07-08T01:36:26;21.70;75.20
5176;DHT22;2607;50.934;6.934;2023-07-08T01:38:52;21.70;75.20
5176;DHT22;2607;50.934;6.934;2023-07-08T01:41:18;21.70;75.70
5176;DHT22;2607;50.934;6.934;2023-07-08T01:43:44;21.70;75.70
5176;DHT22;2607;50.934;6.934;2023-07-08T01:46:20;21.70;75.70
5176;DHT22;2607;50.934;6.934;2023-07-08T01:48:55;21.70;75.80
5176;DHT22;2607;50.934;6.934;2023-07-08T01:51:23;21.70;76.00
5176;DHT22;2607;50.934;6.934;2023-07-08T01:53:49;21.60;76.80
5176;DHT22;2607;50.934;6.934;2023-07-08T01:56:15;21.60;76.70
5176;DHT22;2607;50.934;6.934;2023-07-08T01:58:41;21.60;76.70
5176;DHT22;2607;50.934;6.934;2023-07-08T02:01:07;21.60;76.60
5176;DHT22;2607;50.934;6.934;2023-07-08T02:03:33;21.60;76.70
5176;DHT22;2607;50.934;6.934;2023-07-08T02:05:59;21.60;76.80
5176;DHT22;2607;50.934;6.934;2023-07-08T02:08:25;21.60;76.90
5176;DHT22;2607;50.934;6.934;2023-07-08T02:10:52;21.60;77.40
5176;DHT22;2607;50.934;6.934;2023-07-08T02:13:19;21.60;77.20
5176;DHT22;2607;50.934;6.934;2023-07-08T02:15:45;21.60;77.20
5176;DHT22;2607;50.934;6.934;2023-07-08T02:18:11;21.60;77.20
5176;DHT22;2607;50.934;6.934;2023-07-08T02:20:36;21.60;77.20
5176;DHT22;2607;50.934;6.934;2023-07-08T02:23:02;21.50;77.20
5176;DHT22;2607;50.934;6.934;2023-07-08T02:25:27;21.50;77.60
5176;DHT22;2607;50.934;6.934;2023-07-08T02:27:54;21.50;77.90
5176;DHT22;2607;50.934;6.934;2023-07-08T02:30:26;21.50;77.80
5176;DHT22;2607;50.934;6.934;2023-07-08T02:32:53;21.50;77.90
5176;DHT22;2607;50.934;6.934;2023-07-08T02:35:30;21.50;77.70
5176;DHT22;2607;50.934;6.934;2023-07-08T02:37:57;21.50;77.60
5176;DHT22;2607;50.934;6.934;2023-07-08T02:40:24;21.50;77.70
5176;DHT22;2607;50.934;6.934;2023-07-08T02:42:50;21.50;77.70
5176;DHT22;2607;50.934;6.934;2023-07-08T02:45:16;21.40;77.60
5176;DHT22;2607;50.934;6.934;2023-07-08T02:47:42;21.40;78.10
5176;DHT22;2607;50.934;6.934;2023-07-08T02:50:09;21.40;78.70
5176;DHT22;2607;50.934;6.934;2023-07-08T02:52:35;21.40;78.60
5176;DHT22;2607;50.934;6.934;2023-07-08T02:55:01;21.40;78.50
5176;DHT22;2607;50.934;6.934;2023-07-08T02:57:27;21.40;78.80
5176;DHT22;2607;50.934;6.934;2023-07-08T02:59:52;21.30;79.00
5176;DHT22;2607;50.934;6.934;2023-07-08T03:02:18;21.30;79.40
5176;DHT22;2607;50.934;6.934;2023-07-08T03:04:43;21.30;79.60
5176;DHT22;2607;50.934;6.934;2023-07-08T03:07:10;21.30;79.70
5176;DHT22;2607;50.934;6.934;2023-07-08T03:09:37;21.30;80.00
5176;DHT22;2607;50.934;6.934;2023-07-08T03:12:05;21.30;80.10
5176;DHT22;2607;50.934;6.934;2023-07-08T03:14:30;21.20;80.20
5176;DHT22;2607;50.934;6.934;2023-07-08T03:16:56;21.20;80.10
5176;DHT22;2607;50.934;6.934;2023-07-08T03:19:22;21.20;80.20
5176;DHT22;2607;50.934;6.934;2023-07-08T03:21:47;21.20;80.40
5176;DHT22;2607;50.934;6.934;2023-07-08T03:24:13;21.20;80.50
5176;DHT22;2607;50.934;6.934;2023-07-08T03:26:39;21.20;80.60
5176;DHT22;2607;50.934;6.934;2023-07-08T03:29:05;21.20;80.60
5176;DHT22;2607;50.934;6.934;2023-07-08T03:31:34;21.20;80.70
5176;DHT22;2607;50.934;6.934;2023-07-08T03:33:59;21.20;80.70
5176;DHT22;2607;50.934;6.934;2023-07-08T03:36:25;21.20;80.70
5176;DHT22;2607;50.934;6.934;2023-07-08T03:38:53;21.20;80.60
5176;DHT22;2607;50.934;6.934;2023-07-08T03:41:19;21.20;80.70
5176;DHT22;2607;50.934;6.934;2023-07-08T03:43:45;21.20;80.70
5176;DHT22;2607;50.934;6.934;2023-07-08T03:46:15;21.10;80.80
5176;DHT22;2607;50.934;6.934;2023-07-08T03:48:41;21.20;81.10
5176;DHT22;2607;50.934;6.934;2023-07-08T03:51:12;21.10;81.60
5176;DHT22;2607;50.934;6.934;2023-07-08T03:53:40;21.10;81.70
5176;DHT22;2607;50.934;6.934;2023-07-08T03:56:07;21.10;81.40
5176;DHT22;2607;50.934;6.934;2023-07-08T03:58:33;21.10;81.20
5176;DHT22;2607;50.934;6.934;2023-07-08T04:00:58;21.10;81.10
5176;DHT22;2607;50.934;6.934;2023-07-08T04:03:24;21.20;81.50
5176;DHT22;2607;50.934;6.934;2023-07-08T04:05:50;21.10;81.40
5176;DHT22;2607;50.934;6.934;2023-07-08T04:08:15;21.10;81.60
5176;DHT22;2607;50.934;6.934;2023-07-08T04:10:41;21.10;81.90
5176;DHT22;2607;50.934;6.934;2023-07-08T04:13:06;21.10;81.90
5176;DHT22;2607;50.934;6.934;2023-07-08T04:15:32;21.10;82.00
5176;DHT22;2607;50.934;6.934;2023-07-08T04:17:57;21.00;81.90
5176;DHT22;2607;50.934;6.934;2023-07-08T04:20:23;21.00;81.90
5176;DHT22;2607;50.934;6.934;2023-07-08T04:22:49;21.00;82.20
5176;DHT22;2607;50.934;6.934;2023-07-08T04:25:14;21.00;82.70
5176;DHT22;2607;50.934;6.934;2023-07-08T04:27:41;21.00;82.50
5176;DHT22;2607;50.934;6.934;2023-07-08T04:30:09;21.00;83.00
5176;DHT22;2607;50.934;6.934;2023-07-08T04:32:35;21.00;82.70
5176;DHT22;2607;50.934;6.934;2023-07-08T04:35:03;21.00;82.60
5176;DHT22;2607;50.934;6.934;2023-07-08T04:37:28;21.00;82.90
5176;DHT22;2607;50.934;6.934;2023-07-08T04:39:54;20.90;83.40
5176;DHT22;2607;50.934;6.934;2023-07-08T04:42:19;21.00;83.50
5176;DHT22;2607;50.934;6.934;2023-07-08T04:44:45;21.00;82.80
5176;DHT22;2607;50.934;6.934;2023-07-08T04:47:11;21.00;82.50
5176;DHT22;2607;50.934;6.934;2023-07-08T04:49:39;21.00;82.70
5176;DHT22;2607;50.934;6.934;2023-07-08T04:52:06;21.00;83.20
5176;DHT22;2607;50.934;6.934;2023-07-08T04:54:32;21.00;83.30
5176;DHT22;2607;50.934;6.934;2023-07-08T04:56:57;21.00;83.80
5176;DHT22;2607;50.934;6.934;2023-07-08T04:59:24;21.00;84.00
5176;DHT22;2607;50.934;6.934;2023-07-08T05:01:51;21.00;83.30
5176;DHT22;2607;50.934;6.934;2023-07-08T05:04:21;21.00;83.40
5176;DHT22;2607;50.934;6.934;2023-07-08T05:06:48;21.00;83.50
5176;DHT22;2607;50.934;6.934;2023-07-08T05:09:13;21.10;83.90
5176;DHT22;2607;50.934;6.934;2023-07-08T05:11:39;21.10;84.50
5176;DHT22;2607;50.934;6.934;2023-07-08T05:14:05;21.20;84.50
5176;DHT22;2607;50.934;6.934;2023-07-08T05:16:34;21.20;84.00
5176;DHT22;2607;50.934;6.934;2023-07-08T05:19:01;21.30;84.10
5176;DHT22;2607;50.934;6.934;2023-07-08T05:21:29;21.30;83.80
5176;DHT22;2607;50.934;6.934;2023-07-08T05:23:59;21.30;84.00
5176;DHT22;2607;50.934;6.934;2023-07-08T05:26:24;21.40;83.80
5176;DHT22;2607;50.934;6.934;2023-07-08T05:28:50;21.50;84.10
5176;DHT22;2607;50.934;6.934;2023-07-08T05:31:15;21.50;83.90
5176;DHT22;2607;50.934;6.934;2023-07-08T05:33:41;21.60;83.70
5176;DHT22;2607;50.934;6.934;2023-07-08T05:36:07;21.60;83.60
5176;DHT22;2607;50.934;6.934;2023-07-08T05:38:32;21.60;83.60
5176;DHT22;2607;50.934;6.934;2023-07-08T05:40:58;21.70;83.70
5176;DHT22;2607;50.934;6.934;2023-07-08T05:43:25;21.70;83.70
5176;DHT22;2607;50.934;6.934;2023-07-08T05:45:51;21.70;83.50
5176;DHT22;2607;50.934;6.934;2023-07-08T05:48:17;21.80;83.00
5176;DHT22;2607;50.934;6.934;2023-07-08T05:50:44;21.80;82.90
5176;DHT22;2607;50.934;6.934;2023-07-08T05:53:11;21.80;82.60
5176;DHT22;2607;50.934;6.934;2023-07-08T05:55:37;21.80;82.60
5176;DHT22;2607;50.934;6.934;2023-07-08T05:58:02;21.90;82.50
5176;DHT22;2607;50.934;6.934;2023-07-08T06:00:28;21.90;82.10
5176;DHT22;2607;50.934;6.934;2023-07-08T06:02:54;22.00;82.10
5176;DHT22;2607;50.934;6.934;2023-07-08T06:05:19;22.00;81.70
5176;DHT22;2607;50.934;6.934;2023-07-08T06:07:45;22.10;81.50
5176;DHT22;2607;50.934;6.934;2023-07-08T06:10:10;22.20;81.60
5176;DHT22;2607;50.934;6.934;2023-07-08T06:12:37;22.30;81.20
5176;DHT22;2607;50.934;6.934;2023-07-08T06:15:03;22.30;80.90
5176;DHT22;2607;50.934;6.934;2023-07-08T06:17:28;22.30;80.80
5176;DHT22;2607;50.934;6.934;2023-07-08T06:19:54;22.30;81.00
5176;DHT22;2607;50.934;6.934;2023-07-08T06:22:19;22.30;80.90
5176;DHT22;2607;50.934;6.934;2023-07-08T06:24:46;22.30;80.90
5176;DHT22;2607;50.934;6.934;2023-07-08T06:27:13;22.30;80.70
5176;DHT22;2607;50.934;6.934;2023-07-08T06:29:38;22.30;80.60
5176;DHT22;2607;50.934;6.934;2023-07-08T06:32:04;22.30;80.50
5176;DHT22;2607;50.934;6.934;2023-07-08T06:34:30;22.30;80.30
5176;DHT22;2607;50.934;6.934;2023-07-08T06:36:55;22.30;80.20
5176;DHT22;2607;50.934;6.934;2023-07-08T06:39:21;22.30;80.30
5176;DHT22;2607;50.934;6.934;2023-07-08T06:41:46;22.30;80.40
5176;DHT22;2607;50.934;6.934;2023-07-08T06:44:12;22.40;81.20
5176;DHT22;2607;50.934;6.934;2023-07-08T06:46:38;22.40;80.80
5176;DHT22;2607;50.934;6.934;2023-07-08T06:49:04;22.50;80.40
5176;DHT22;2607;50.934;6.934;2023-07-08T06:51:34;22.60;80.40
5176;DHT22;2607;50.934;6.934;2023-07-08T06:54:00;22.60;80.00
5176;DHT22;2607;50.934;6.934;2023-07-08T06:56:29;22.70;79.50
5176;DHT22;2607;50.934;6.934;2023-07-08T06:58:55;22.80;79.00
5176;DHT22;2607;50.934;6.934;2023-07-08T07:01:20;22.90;78.50
5176;DHT22;2607;50.934;6.934;2023-07-08T07:03:46;22.90;78.20
5176;DHT22;2607;50.934;6.934;2023-07-08T07:06:11;23.00;78.10
5176;DHT22;2607;50.934;6.934;2023-07-08T07:08:37;23.00;78.60
5176;DHT22;2607;50.934;6.934;2023-07-08T07:11:02;23.10;78.90
5176;DHT22;2607;50.934;6.934;2023-07-08T07:13:28;23.20;79.20
5176;DHT22;2607;50.934;6.934;2023-07-08T07:15:54;23.20;78.90
5176;DHT22;2607;50.934;6.934;2023-07-08T07:18:20;23.30;78.50
5176;DHT22;2607;50.934;6.934;2023-07-08T07:20:52;23.40;78.10
5176;DHT22;2607;50.934;6.934;2023-07-08T07:23:18;23.40;77.90
5176;DHT22;2607;50.934;6.934;2023-07-08T07:25:45;23.50;77.90
5176;DHT22;2607;50.934;6.934;2023-07-08T07:28:13;23.50;77.80
5176;DHT22;2607;50.934;6.934;2023-07-08T07:30:38;23.60;77.80
5176;DHT22;2607;50.934;6.934;2023-07-08T07:33:04;23.60;77.60
5176;DHT22;2607;50.934;6.934;2023-07-08T07:35:29;23.70;77.80
5176;DHT22;2607;50.934;6.934;2023-07-08T07:37:55;23.70;77.50
5176;DHT22;2607;50.934;6.934;2023-07-08T07:40:20;23.70;77.50
5176;DHT22;2607;50.934;6.934;2023-07-08T07:42:46;23.60;77.60
5176;DHT22;2607;50.934;6.934;2023-07-08T07:45:13;23.60;77.70
5176;DHT22;2607;50.934;6.934;2023-07-08T07:47:39;23.60;77.90
5176;DHT22;2607;50.934;6.934;2023-07-08T07:50:06;23.60;77.70
5176;DHT22;2607;50.934;6.934;2023-07-08T07:52:32;23.70;77.60
5176;DHT22;2607;50.934;6.934;2023-07-08T07:54:58;23.70;77.50
5176;DHT22;2607;50.934;6.934;2023-07-08T07:57:24;23.70;77.30
5176;DHT22;2607;50.934;6.934;2023-07-08T07:59:49;23.80;77.00
5176;DHT22;2607;50.934;6.934;2023-07-08T08:02:16;23.80;77.20
5176;DHT22;2607;50.934;6.934;2023-07-08T08:04:42;23.90;76.70
5176;DHT22;2607;50.934;6.934;2023-07-08T08:07:07;24.00;76.20
5176;DHT22;2607;50.934;6.934;2023-07-08T08:09:33;24.10;75.70
5176;DHT22;2607;50.934;6.934;2023-07-08T08:12:01;24.20;75.30
5176;DHT22;2607;50.934;6.934;2023-07-08T08:14:27;24.30;75.30
5176;DHT22;2607;50.934;6.934;2023-07-08T08:16:53;24.30;74.90
5176;DHT22;2607;50.934;6.934;2023-07-08T08:19:18;24.40;74.80
5176;DHT22;2607;50.934;6.934;2023-07-08T08:21:44;24.40;74.60
5176;DHT22;2607;50.934;6.934;2023-07-08T08:24:09;24.50;74.50
5176;DHT22;2607;50.934;6.934;2023-07-08T08:26:35;24.60;74.50
5176;DHT22;2607;50.934;6.934;2023-07-08T08:29:02;24.60;74.30
5176;DHT22;2607;50.934;6.934;2023-07-08T08:31:27;24.70;74.10
5176;DHT22;2607;50.934;6.934;2023-07-08T08:33:53;24.70;73.70
5176;DHT22;2607;50.934;6.934;2023-07-08T08:36:19;24.70;73.80
5176;DHT22;2607;50.934;6.934;2023-07-08T08:38:46;24.80;74.00
5176;DHT22;2607;50.934;6.934;2023-07-08T08:41:13;24.80;74.10
5176;DHT22;2607;50.934;6.934;2023-07-08T08:43:40;24.80;74.20
5176;DHT22;2607;50.934;6.934;2023-07-08T08:46:12;24.90;74.30
5176;DHT22;2607;50.934;6.934;2023-07-08T08:51:19;24.90;74.40
5176;DHT22;2607;50.934;6.934;2023-07-08T08:53:46;25.00;74.20
5176;DHT22;2607;50.934;6.934;2023-07-08T08:56:21;25.10;73.30
5176;DHT22;2607;50.934;6.934;2023-07-08T09:01:27;25.20;72.60
5176;DHT22;2607;50.934;6.934;2023-07-08T09:04:00;25.30;72.40
5176;DHT22;2607;50.934;6.934;2023-07-08T09:06:30;25.40;72.50
5176;DHT22;2607;50.934;6.934;2023-07-08T09:09:00;25.50;71.80
5176;DHT22;2607;50.934;6.934;2023-07-08T09:11:40;25.50;72.30
5176;DHT22;2607;50.934;6.934;2023-07-08T09:14:37;25.70;72.80
5176;DHT22;2607;50.934;6.934;2023-07-08T09:22:52;26.00;70.90
5176;DHT22;2607;50.934;6.934;2023-07-08T09:25:24;26.10;71.20
5176;DHT22;2607;50.934;6.934;2023-07-08T09:27:50;26.20;71.40
5176;DHT22;2607;50.934;6.934;2023-07-08T09:30:18;26.30;71.00
5176;DHT22;2607;50.934;6.934;2023-07-08T09:32:46;26.40;70.00
5176;DHT22;2607;50.934;6.934;2023-07-08T09:35:19;26.50;69.00
5176;DHT22;2607;50.934;6.934;2023-07-08T09:37:46;26.60;68.30
5176;DHT22;2607;50.934;6.934;2023-07-08T09:40:23;26.80;68.50
5176;DHT22;2607;50.934;6.934;2023-07-08T09:43:00;26.90;68.70
5176;DHT22;2607;50.934;6.934;2023-07-08T09:45:26;27.10;69.40
5176;DHT22;2607;50.934;6.934;2023-07-08T09:48:01;27.20;68.80
5176;DHT22;2607;50.934;6.934;2023-07-08T09:50:28;27.30;67.90
5176;DHT22;2607;50.934;6.934;2023-07-08T09:52:56;27.50;67.90
5176;DHT22;2607;50.934;6.934;2023-07-08T09:55:23;27.60;67.00
5176;DHT22;2607;50.934;6.934;2023-07-08T09:57:51;27.70;66.40
5176;DHT22;2607;50.934;6.934;2023-07-08T10:00:25;27.80;65.70
5176;DHT22;2607;50.934;6.934;2023-07-08T10:02:54;28.00;65.70
5176;DHT22;2607;50.934;6.934;2023-07-08T10:05:31;28.10;65.60
5176;DHT22;2607;50.934;6.934;2023-07-08T10:07:59;28.10;64.90
5176;DHT22;2607;50.934;6.934;2023-07-08T10:13:01;28.30;65.10
5176;DHT22;2607;50.934;6.934;2023-07-08T10:15:38;28.30;65.30
5176;DHT22;2607;50.934;6.934;2023-07-08T10:18:10;28.40;65.20
5176;DHT22;2607;50.934;6.934;2023-07-08T10:37:16;28.80;64.20
5176;DHT22;2607;50.934;6.934;2023-07-08T10:45:19;29.00;63.30
5176;DHT22;2607;50.934;6.934;2023-07-08T10:50:26;29.10;63.30
5176;DHT22;2607;50.934;6.934;2023-07-08T10:53:17;29.20;63.10
5176;DHT22;2607;50.934;6.934;2023-07-08T10:55:55;29.20;63.20
5176;DHT22;2607;50.934;6.934;2023-07-08T10:58:58;29.30;62.10
5176;DHT22;2607;50.934;6.934;2023-07-08T11:07:03;29.40;62.40
5176;DHT22;2607;50.934;6.934;2023-07-08T11:09:49;29.50;61.90
5176;DHT22;2607;50.934;6.934;2023-07-08T11:12:36;29.60;61.60
5176;DHT22;2607;50.934;6.934;2023-07-08T11:15:18;29.60;61.70
5176;DHT22;2607;50.934;6.934;2023-07-08T11:20:58;29.70;61.70
5176;DHT22;2607;50.934;6.934;2023-07-08T11:23:32;29.70;60.70
5176;DHT22;2607;50.934;6.934;2023-07-08T11:26:20;29.80;61.10
5176;DHT22;2607;50.934;6.934;2023-07-08T11:28:51;29.90;60.50
5176;DHT22;2607;50.934;6.934;2023-07-08T11:31:19;30.00;60.80
5176;DHT22;2607;50.934;6.934;2023-07-08T11:33:45;30.10;61.10
5176;DHT22;2607;50.934;6.934;2023-07-08T11:36:11;30.20;60.70
5176;DHT22;2607;50.934;6.934;2023-07-08T11:38:48;30.30;59.80
5176;DHT22;2607;50.934;6.934;2023-07-08T11:41:17;30.40;58.90
5176;DHT22;2607;50.934;6.934;2023-07-08T11:43:49;30.50;59.60
5176;DHT22;2607;50.934;6.934;2023-07-08T11:46:21;30.60;59.50
5176;DHT22;2607;50.934;6.934;2023-07-08T11:48:52;30.70;59.30
5176;DHT22;2607;50.934;6.934;2023-07-08T11:51:23;30.80;59.20
5176;DHT22;2607;50.934;6.934;2023-07-08T11:53:58;30.90;58.10
5176;DHT22;2607;50.934;6.934;2023-07-08T11:56:25;31.00;58.40
5176;DHT22;2607;50.934;6.934;2023-07-08T11:58:53;31.10;58.30
5176;DHT22;2607;50.934;6.934;2023-07-08T12:01:40;31.20;57.70
5176;DHT22;2607;50.934;6.934;2023-07-08T12:04:35;31.30;56.60
5176;DHT22;2607;50.934;6.934;2023-07-08T12:07:19;31.40;55.90
5176;DHT22;2607;50.934;6.934;2023-07-08T12:12:35;31.70;55.90
5176;DHT22;2607;50.934;6.934;2023-07-08T12:15:16;31.80;55.70
5176;DHT22;2607;50.934;6.934;2023-07-08T12:17:43;31.90;55.40
5176;DHT22;2607;50.934;6.934;2023-07-08T12:20:22;32.00;55.40
5176;DHT22;2607;50.934;6.934;2023-07-08T12:22:49;32.00;55.00
5176;DHT22;2607;50.934;6.934;2023-07-08T12:25:17;32.10;54.80
5176;DHT22;2607;50.934;6.934;2023-07-08T12:27:44;32.10;54.50
5176;DHT22;2607;50.934;6.934;2023-07-08T12:30:11;32.20;54.00
5176;DHT22;2607;50.934;6.934;2023-07-08T12:32:38;32.20;54.40
5176;DHT22;2607;50.934;6.934;2023-07-08T12:35:05;32.30;54.10
5176;DHT22;2607;50.934;6.934;2023-07-08T12:37:35;32.30;53.90
5176;DHT22;2607;50.934;6.934;2023-07-08T12:40:00;32.40;53.10
5176;DHT22;2607;50.934;6.934;2023-07-08T12:42:30;32.40;53.10
5176;DHT22;2607;50.934;6.934;2023-07-08T12:44:56;32.40;53.70
5176;DHT22;2607;50.934;6.934;2023-07-08T12:47:22;32.50;53.70
5176;DHT22;2607;50.934;6.934;2023-07-08T12:49:48;32.50;53.10
5176;DHT22;2607;50.934;6.934;2023-07-08T12:52:23;32.50;53.20
5176;DHT22;2607;50.934;6.934;2023-07-08T12:54:49;32.60;52.90
5176;DHT22;2607;50.934;6.934;2023-07-08T12:57:18;32.50;51.70
5176;DHT22;2607;50.934;6.934;2023-07-08T12:59:44;32.60;52.40
5176;DHT22;2607;50.934;6.934;2023-07-08T13:02:21;32.50;52.40
5176;DHT22;2607;50.934;6.934;2023-07-08T13:04:53;32.50;51.90
5176;DHT22;2607;50.934;6.934;2023-07-08T13:07:41;32.50;52.10
5176;DHT22;2607;50.934;6.934;2023-07-08T13:10:16;32.50;52.30
5176;DHT22;2607;50.934;6.934;2023-07-08T13:12:43;32.50;52.40
5176;DHT22;2607;50.934;6.934;2023-07-08T13:15:17;32.40;52.20
5176;DHT22;2607;50.934;6.934;2023-07-08T13:17:45;32.40;52.50
5176;DHT22;2607;50.934;6.934;2023-07-08T13:20:14;32.30;52.00
5176;DHT22;2607;50.934;6.934;2023-07-08T13:22:41;32.30;51.90
5176;DHT22;2607;50.934;6.934;2023-07-08T13:25:15;32.30;52.00
5176;DHT22;2607;50.934;6.934;2023-07-08T13:27:41;32.20;52.60
5176;DHT22;2607;50.934;6.934;2023-07-08T13:30:19;32.10;52.60
5176;DHT22;2607;50.934;6.934;2023-07-08T13:32:45;32.10;52.80
5176;DHT22;2607;50.934;6.934;2023-07-08T13:35:39;32.00;53.00
5176;DHT22;2607;50.934;6.934;2023-07-08T13:38:11;32.00;53.10
5176;DHT22;2607;50.934;6.934;2023-07-08T13:40:44;32.00;53.00
5176;DHT22;2607;50.934;6.934;2023-07-08T13:43:10;31.90;53.00
5176;DHT22;2607;50.934;6.934;2023-07-08T13:45:36;31.90;52.90
5176;DHT22;2607;50.934;6.934;2023-07-08T13:50:58;31.80;53.40
5176;DHT22;2607;50.934;6.934;2023-07-08T13:53:26;31.80;53.80
5176;DHT22;2607;50.934;6.934;2023-07-08T13:56:00;31.80;53.70
5176;DHT22;2607;50.934;6.934;2023-07-08T13:58:28;31.80;53.70
5176;DHT22;2607;50.934;6.934;2023-07-08T14:00:55;31.70;53.20
5176;DHT22;2607;50.934;6.934;2023-07-08T14:03:20;31.70;53.50
5176;DHT22;2607;50.934;6.934;2023-07-08T14:05:46;31.70;53.30
5176;DHT22;2607;50.934;6.934;2023-07-08T14:08:16;31.60;53.60
5176;DHT22;2607;50.934;6.934;2023-07-08T14:10:43;31.60;53.70
5176;DHT22;2607;50.934;6.934;2023-07-08T14:13:10;31.50;53.80
5176;DHT22;2607;50.934;6.934;2023-07-08T14:15:38;31.40;54.80
5176;DHT22;2607;50.934;6.934;2023-07-08T14:18:04;31.20;54.50
5176;DHT22;2607;50.934;6.934;2023-07-08T14:20:30;31.10;54.80
5176;DHT22;2607;50.934;6.934;2023-07-08T14:22:56;31.00;55.20
5176;DHT22;2607;50.934;6.934;2023-07-08T14:25:22;31.00;55.60
5176;DHT22;2607;50.934;6.934;2023-07-08T14:27:49;31.00;55.50
5176;DHT22;2607;50.934;6.934;2023-07-08T14:30:15;31.00;55.40
5176;DHT22;2607;50.934;6.934;2023-07-08T14:32:41;31.10;55.10
5176;DHT22;2607;50.934;6.934;2023-07-08T14:37:44;31.10;55.60
5176;DHT22;2607;50.934;6.934;2023-07-08T14:43:02;31.00;55.10
5176;DHT22;2607;50.934;6.934;2023-07-08T14:45:30;31.10;55.00
5176;DHT22;2607;50.934;6.934;2023-07-08T14:47:57;31.10;55.10
5176;DHT22;2607;50.934;6.934;2023-07-08T14:50:22;31.20;55.80
5176;DHT22;2607;50.934;6.934;2023-07-08T14:52:50;31.20;56.20
5176;DHT22;2607;50.934;6.934;2023-07-08T14:55:16;31.10;56.10
5176;DHT22;2607;50.934;6.934;2023-07-08T14:57:47;31.00;56.50
5176;DHT22;2607;50.934;6.934;2023-07-08T15:00:15;31.00;56.30
5176;DHT22;2607;50.934;6.934;2023-07-08T15:02:43;30.90;56.70
5176;DHT22;2607;50.934;6.934;2023-07-08T15:05:39;30.90;56.90
5176;DHT22;2607;50.934;6.934;2023-07-08T15:08:04;30.90;57.10
5176;DHT22;2607;50.934;6.934;2023-07-08T15:10:31;30.90;57.10
5176;DHT22;2607;50.934;6.934;2023-07-08T15:12:59;30.90;56.70
5176;DHT22;2607;50.934;6.934;2023-07-08T15:15:30;30.90;57.20
5176;DHT22;2607;50.934;6.934;2023-07-08T15:18:00;31.00;57.60
5176;DHT22;2607;50.934;6.934;2023-07-08T15:20:32;30.90;57.50
5176;DHT22;2607;50.934;6.934;2023-07-08T15:22:57;30.90;57.60
5176;DHT22;2607;50.934;6.934;2023-07-08T15:25:23;30.80;57.50
5176;DHT22;2607;50.934;6.934;2023-07-08T15:27:52;30.70;57.50
5176;DHT22;2607;50.934;6.934;2023-07-08T15:30:26;30.70;57.60
5176;DHT22;2607;50.934;6.934;2023-07-08T15:32:53;30.60;57.90
5176;DHT22;2607;50.934;6.934;2023-07-08T15:35:24;30.50;58.10
5176;DHT22;2607;50.934;6.934;2023-07-08T15:37:51;30.50;58.30
5176;DHT22;2607;50.934;6.934;2023-07-08T15:40:18;30.40;58.30
5176;DHT22;2607;50.934;6.934;2023-07-08T15:42:50;30.40;58.30
5176;DHT22;2607;50.934;6.934;2023-07-08T15:45:24;30.40;58.60
5176;DHT22;2607;50.934;6.934;2023-07-08T15:47:50;30.40;58.40
5176;DHT22;2607;50.934;6.934;2023-07-08T15:50:18;30.40;58.60
5176;DHT22;2607;50.934;6.934;2023-07-08T15:52:44;30.30;58.60
5176;DHT22;2607;50.934;6.934;2023-07-08T15:55:12;30.20;58.80
5176;DHT22;2607;50.934;6.934;2023-07-08T15:57:45;30.20;59.20
5176;DHT22;2607;50.934;6.934;2023-07-08T16:00:18;30.10;59.30
5176;DHT22;2607;50.934;6.934;2023-07-08T16:02:51;30.10;59.50
5176;DHT22;2607;50.934;6.934;2023-07-08T16:05:18;30.10;59.80
5176;DHT22;2607;50.934;6.934;2023-07-08T16:07:48;30.00;60.00
5176;DHT22;2607;50.934;6.934;2023-07-08T16:10:14;30.00;60.10
5176;DHT22;2607;50.934;6.934;2023-07-08T16:12:40;29.90;60.20
5176;DHT22;2607;50.934;6.934;2023-07-08T16:15:18;29.90;60.10
5176;DHT22;2607;50.934;6.934;2023-07-08T16:17:45;29.80;60.50
5176;DHT22;2607;50.934;6.934;2023-07-08T16:20:20;29.80;60.60
5176;DHT22;2607;50.934;6.934;2023-07-08T16:22:46;29.80;60.50
5176;DHT22;2607;50.934;6.934;2023-07-08T16:25:21;29.70;60.70
5176;DHT22;2607;50.934;6.934;2023-07-08T16:27:50;29.70;61.00
5176;DHT22;2607;50.934;6.934;2023-07-08T16:30:18;29.60;61.20
5176;DHT22;2607;50.934;6.934;2023-07-08T16:32:45;29.60;61.40
5176;DHT22;2607;50.934;6.934;2023-07-08T16:35:16;29.60;61.60
5176;DHT22;2607;50.934;6.934;2023-07-08T16:37:42;29.60;61.60
5176;DHT22;2607;50.934;6.934;2023-07-08T16:40:17;29.60;61.80
5176;DHT22;2607;50.934;6.934;2023-07-08T16:42:44;29.60;61.80
5176;DHT22;2607;50.934;6.934;2023-07-08T16:45:12;29.60;61.80
5176;DHT22;2607;50.934;6.934;2023-07-08T16:47:38;29.50;61.80
5176;DHT22;2607;50.934;6.934;2023-07-08T16:50:04;29.50;61.80
5176;DHT22;2607;50.934;6.934;2023-07-08T16:52:30;29.50;61.90
5176;DHT22;2607;50.934;6.934;2023-07-08T16:54:57;29.40;62.30
5176;DHT22;2607;50.934;6.934;2023-07-08T16:57:23;29.40;62.40
5176;DHT22;2607;50.934;6.934;2023-07-08T16:59:49;29.40;62.90
5176;DHT22;2607;50.934;6.934;2023-07-08T17:02:16;29.30;63.00
5176;DHT22;2607;50.934;6.934;2023-07-08T17:04:45;29.30;63.20
5176;DHT22;2607;50.934;6.934;2023-07-08T17:07:13;29.30;63.60
5176;DHT22;2607;50.934;6.934;2023-07-08T17:09:39;29.30;63.60
5176;DHT22;2607;50.934;6.934;2023-07-08T17:12:08;29.30;63.40